createdAt,value
2023-03-22T00:01:20.790Z,6.10
2023-03-22T00:06:24.926Z,6.05
2023-03-22T00:11:29.877Z,6.14
2023-03-22T00:16:33.146Z,6.14
2023-03-22T00:21:36.609Z,6.09
2023-03-22T00:26:41.772Z,6.22
2023-03-22T00:31:44.960Z,6.26
2023-03-22T00:36:48.699Z,6.32
2023-03-22T00:41:53.653Z,6.34
2023-03-22T00:46:56.679Z,6.30
2023-03-22T00:52:00.286Z,6.18
2023-03-22T00:57:05.273Z,6.20
2023-03-22T01:02:08.553Z,6.33
2023-03-22T01:07:11.986Z,6.33
2023-03-22T01:12:17.087Z,6.31
2023-03-22T01:17:20.609Z,6.26
2023-03-22T01:22:23.937Z,6.14
2023-03-22T01:27:28.961Z,6.21
2023-03-22T01:32:32.526Z,6.18
2023-03-22T01:37:36.337Z,6.24
2023-03-22T01:42:41.380Z,6.28
2023-03-22T01:47:46.330Z,6.28
2023-03-22T01:52:51.192Z,6.14
2023-03-22T01:57:56.895Z,6.25
2023-03-22T02:03:00.999Z,6.27
2023-03-22T02:08:05.266Z,6.21
2023-03-22T02:13:35.011Z,6.25
2023-03-22T02:18:54.668Z,6.28
2023-03-22T02:24:28.039Z,6.31
2023-03-22T02:29:41.939Z,6.31
2023-03-22T02:35:22.752Z,6.25
2023-03-22T02:40:33.348Z,6.04
2023-03-22T02:45:44.655Z,5.93
2023-03-22T02:50:55.001Z,5.92
2023-03-22T02:56:03.590Z,5.78
2023-03-22T03:01:10.693Z,5.78
2023-03-22T03:06:18.138Z,5.68
2023-03-22T03:11:23.708Z,5.48
2023-03-22T03:16:29.632Z,5.44
2023-03-22T03:21:42.766Z,5.37
2023-03-22T03:26:57.484Z,5.19
2023-03-22T03:32:08.616Z,5.09
2023-03-22T03:37:18.832Z,4.98
2023-03-22T03:42:27.306Z,5.01
2023-03-22T03:47:32.512Z,4.96
2023-03-22T03:52:36.337Z,4.87
2023-03-22T03:57:41.408Z,4.84
2023-03-22T04:02:44.915Z,4.93
2023-03-22T04:07:48.393Z,4.81
2023-03-22T04:12:53.177Z,4.80
2023-03-22T04:17:56.482Z,4.77
2023-03-22T04:23:00.586Z,4.71
2023-03-22T04:28:05.821Z,4.73
2023-03-22T04:33:09.305Z,4.61
2023-03-22T04:38:12.641Z,4.61
2023-03-22T04:43:19.020Z,4.86
2023-03-22T04:48:22.652Z,5.33
2023-03-22T04:53:27.575Z,5.38
2023-03-22T04:58:32.298Z,5.47
2023-03-22T05:03:36.745Z,5.30
2023-03-22T05:08:40.173Z,5.27
2023-03-22T05:13:45.323Z,5.10
2023-03-22T05:18:49.983Z,5.03
2023-03-22T05:23:53.481Z,5.00
2023-03-22T05:28:58.353Z,5.11
2023-03-22T05:34:02.007Z,5.16
2023-03-22T05:39:05.933Z,5.19
2023-03-22T05:44:10.937Z,5.28
2023-03-22T05:49:14.482Z,5.36
2023-03-22T05:54:17.966Z,5.37
2023-03-22T05:59:22.690Z,5.70
2023-03-22T06:04:26.221Z,6.14
2023-03-22T06:09:29.865Z,6.76
2023-03-22T06:14:34.643Z,7.74
2023-03-22T06:19:38.072Z,8.42
2023-03-22T06:24:42.707Z,11.46
2023-03-22T06:29:51.133Z,19.42
2023-03-22T06:34:54.778Z,23.38
2023-03-22T06:39:58.102Z,21.84
2023-03-22T06:45:03.164Z,19.83
2023-03-22T06:50:07.610Z,21.25
2023-03-22T06:55:11.405Z,18.49
2023-03-22T07:00:18.604Z,16.44
2023-03-22T07:05:22.633Z,18.57
2023-03-22T07:10:26.123Z,22.30
2023-03-22T07:15:31.292Z,22.14
2023-03-22T07:20:38.702Z,24.22
2023-03-22T07:25:42.361Z,27.29
2023-03-22T07:30:47.292Z,27.79
2023-03-22T07:35:50.752Z,25.58
2023-03-22T07:40:55.481Z,23.77
2023-03-22T07:46:00.418Z,25.15
2023-03-22T07:51:03.872Z,25.73
2023-03-22T07:56:08.256Z,21.32
2023-03-22T08:01:15.380Z,18.28
2023-03-22T08:06:19.717Z,23.60
2023-03-22T08:11:22.739Z,27.48
2023-03-22T08:16:27.600Z,30.01
2023-03-22T08:21:31.107Z,28.78
2023-03-22T08:26:34.725Z,30.12
2023-03-22T08:31:39.729Z,28.84
2023-03-22T08:36:43.779Z,27.11
2023-03-22T08:41:47.398Z,25.16
2023-03-22T08:46:52.416Z,24.97
2023-03-22T08:51:57.853Z,23.02
2023-03-22T08:57:03.520Z,21.06
2023-03-22T09:02:08.526Z,19.51
2023-03-22T09:07:12.331Z,18.14
2023-03-22T09:12:15.844Z,17.35
2023-03-22T09:17:22.465Z,15.17
2023-03-22T09:22:26.497Z,14.30
2023-03-22T09:27:29.976Z,13.95
2023-03-22T09:32:34.923Z,14.10
2023-03-22T09:37:38.417Z,13.46
2023-03-22T09:42:44.605Z,13.44
2023-03-22T09:47:53.731Z,12.48
2023-03-22T09:52:57.547Z,12.60
2023-03-22T09:58:07.620Z,13.06
2023-03-22T10:03:23.265Z,12.77
2023-03-22T10:08:39.516Z,12.79
2023-03-22T10:13:52.068Z,13.11
2023-03-22T10:19:03.052Z,12.37
2023-03-22T10:24:14.132Z,12.64
2023-03-22T10:29:25.101Z,13.26
2023-03-22T10:34:32.798Z,13.42
2023-03-22T10:39:40.090Z,13.87
2023-03-22T10:44:49.366Z,13.00
2023-03-22T10:49:57.769Z,12.90
2023-03-22T10:55:04.448Z,12.61
2023-03-22T11:00:12.131Z,12.44
2023-03-22T11:05:25.109Z,12.09
2023-03-22T11:10:32.979Z,11.93
2023-03-22T11:15:38.675Z,12.06
2023-03-22T11:20:53.778Z,12.66
2023-03-22T11:25:57.810Z,12.31
2023-03-22T11:31:07.922Z,11.94
2023-03-22T11:36:20.195Z,11.71
2023-03-22T11:41:26.173Z,11.24
2023-03-22T11:46:31.314Z,11.12
2023-03-22T11:51:38.878Z,11.18
2023-03-22T11:56:44.813Z,11.04
2023-03-22T12:01:54.000Z,11.18
2023-03-22T12:07:01.554Z,11.06
2023-03-22T12:12:07.916Z,10.87
2023-03-22T12:17:17.366Z,10.48
2023-03-22T12:22:27.411Z,10.73
2023-03-22T12:27:35.511Z,10.68
2023-03-22T12:32:43.295Z,10.83
2023-03-22T12:37:52.725Z,10.95
2023-03-22T12:43:06.041Z,10.71
2023-03-22T12:48:18.253Z,10.25
2023-03-22T12:53:28.395Z,10.32
2023-03-22T12:58:31.817Z,9.98
2023-03-22T13:03:40.630Z,10.13
2023-03-22T13:09:15.758Z,9.94
2023-03-22T13:14:58.174Z,9.67
2023-03-22T13:20:06.838Z,10.04
2023-03-22T13:25:35.946Z,10.39
2023-03-22T13:30:50.866Z,9.68
2023-03-22T13:35:57.072Z,9.66
2023-03-22T13:41:09.416Z,9.48
2023-03-22T13:46:28.320Z,9.76
2023-03-22T13:51:33.823Z,9.70
2023-03-22T13:56:54.565Z,9.32
2023-03-22T14:02:01.335Z,9.09
2023-03-22T14:07:11.379Z,8.95
2023-03-22T14:12:22.526Z,8.95
2023-03-22T14:17:35.658Z,9.13
